sensor_id;sensor_type;location;lat;lon;timestamp;P1;durP1;ratioP1;P2;durP2;ratioP2
43877;SDS011;29815;48.184;11.268;2023-06-22T00:01:54;7.25;;;4.68;;
43877;SDS011;29815;48.184;11.268;2023-06-22T00:04:24;10.43;;;5.35;;
43877;SDS011;29815;48.184;11.268;2023-06-22T00:06:53;9.05;;;4.82;;
43877;SDS011;29815;48.184;11.268;2023-06-22T00:09:23;10.82;;;5.72;;
43877;SDS011;29815;48.184;11.268;2023-06-22T00:11:52;9.82;;;5.47;;
43877;SDS011;29815;48.184;11.268;2023-06-22T00:14:22;10.52;;;5.93;;
43877;SDS011;29815;48.184;11.268;2023-06-22T00:16:52;9.30;;;5.28;;
43877;SDS011;29815;48.184;11.268;2023-06-22T00:19:26;9.88;;;5.15;;
43877;SDS011;29815;48.184;11.268;2023-06-22T00:21:55;7.78;;;4.93;;
43877;SDS011;29815;48.184;11.268;2023-06-22T00:24:27;10.00;;;4.90;;
43877;SDS011;29815;48.184;11.268;2023-06-22T00:26:57;7.68;;;4.93;;
43877;SDS011;29815;48.184;11.268;2023-06-22T00:29:26;11.27;;;5.65;;
43877;SDS011;29815;48.184;11.268;2023-06-22T00:31:56;7.72;;;5.00;;
43877;SDS011;29815;48.184;11.268;2023-06-22T00:34:27;8.25;;;4.55;;
43877;SDS011;29815;48.184;11.268;2023-06-22T00:36:59;7.85;;;4.40;;
43877;SDS011;29815;48.184;11.268;2023-06-22T00:39:29;6.55;;;5.30;;
43877;SDS011;29815;48.184;11.268;2023-06-22T00:42:01;9.45;;;5.45;;
43877;SDS011;29815;48.184;11.268;2023-06-22T00:44:31;7.90;;;5.43;;
43877;SDS011;29815;48.184;11.268;2023-06-22T00:47:01;7.20;;;4.68;;
43877;SDS011;29815;48.184;11.268;2023-06-22T00:49:32;7.18;;;5.25;;
43877;SDS011;29815;48.184;11.268;2023-06-22T00:52:02;9.35;;;5.80;;
43877;SDS011;29815;48.184;11.268;2023-06-22T00:54:36;9.07;;;5.03;;
43877;SDS011;29815;48.184;11.268;2023-06-22T00:57:06;9.05;;;5.70;;
43877;SDS011;29815;48.184;11.268;2023-06-22T01:02:10;11.63;;;5.80;;
43877;SDS011;29815;48.184;11.268;2023-06-22T01:04:41;9.10;;;5.15;;
43877;SDS011;29815;48.184;11.268;2023-06-22T01:07:14;10.55;;;5.50;;
43877;SDS011;29815;48.184;11.268;2023-06-22T01:09:57;11.32;;;5.68;;
43877;SDS011;29815;48.184;11.268;2023-06-22T01:12:38;10.18;;;4.88;;
43877;SDS011;29815;48.184;11.268;2023-06-22T01:15:15;9.48;;;4.75;;
43877;SDS011;29815;48.184;11.268;2023-06-22T01:17:54;7.97;;;5.05;;
43877;SDS011;29815;48.184;11.268;2023-06-22T01:20:36;9.85;;;5.45;;
43877;SDS011;29815;48.184;11.268;2023-06-22T01:23:09;8.68;;;4.97;;
43877;SDS011;29815;48.184;11.268;2023-06-22T01:25:57;6.80;;;5.32;;
43877;SDS011;29815;48.184;11.268;2023-06-22T01:28:45;9.85;;;4.47;;
43877;SDS011;29815;48.184;11.268;2023-06-22T01:31:18;11.05;;;5.13;;
43877;SDS011;29815;48.184;11.268;2023-06-22T01:33:51;9.55;;;5.32;;
43877;SDS011;29815;48.184;11.268;2023-06-22T01:36:24;9.90;;;5.60;;
43877;SDS011;29815;48.184;11.268;2023-06-22T01:38:55;8.95;;;4.90;;
43877;SDS011;29815;48.184;11.268;2023-06-22T01:41:28;6.80;;;5.13;;
43877;SDS011;29815;48.184;11.268;2023-06-22T01:44:04;7.13;;;4.93;;
43877;SDS011;29815;48.184;11.268;2023-06-22T01:46:36;9.25;;;4.60;;
43877;SDS011;29815;48.184;11.268;2023-06-22T01:49:07;8.75;;;4.70;;
43877;SDS011;29815;48.184;11.268;2023-06-22T01:51:37;7.15;;;4.93;;
43877;SDS011;29815;48.184;11.268;2023-06-22T01:54:07;7.32;;;4.35;;
43877;SDS011;29815;48.184;11.268;2023-06-22T01:56:36;9.55;;;4.75;;
43877;SDS011;29815;48.184;11.268;2023-06-22T01:59:09;7.72;;;4.88;;
43877;SDS011;29815;48.184;11.268;2023-06-22T02:01:47;7.93;;;4.18;;
43877;SDS011;29815;48.184;11.268;2023-06-22T02:04:27;6.68;;;4.65;;
43877;SDS011;29815;48.184;11.268;2023-06-22T02:07:05;10.65;;;5.35;;
43877;SDS011;29815;48.184;11.268;2023-06-22T02:09:44;9.02;;;5.20;;
43877;SDS011;29815;48.184;11.268;2023-06-22T02:12:20;6.97;;;4.88;;
43877;SDS011;29815;48.184;11.268;2023-06-22T02:14:56;12.48;;;5.30;;
43877;SDS011;29815;48.184;11.268;2023-06-22T02:17:30;8.82;;;5.03;;
43877;SDS011;29815;48.184;11.268;2023-06-22T02:20:02;7.25;;;5.07;;
43877;SDS011;29815;48.184;11.268;2023-06-22T02:22:36;11.98;;;4.97;;
43877;SDS011;29815;48.184;11.268;2023-06-22T02:25:06;9.93;;;5.32;;
43877;SDS011;29815;48.184;11.268;2023-06-22T02:27:36;8.95;;;5.13;;
43877;SDS011;29815;48.184;11.268;2023-06-22T02:30:09;6.55;;;4.68;;
43877;SDS011;29815;48.184;11.268;2023-06-22T02:32:42;7.20;;;4.60;;
43877;SDS011;29815;48.184;11.268;2023-06-22T02:35:15;9.65;;;6.18;;
43877;SDS011;29815;48.184;11.268;2023-06-22T02:37:45;7.88;;;5.75;;
43877;SDS011;29815;48.184;11.268;2023-06-22T02:40:19;8.73;;;5.32;;
43877;SDS011;29815;48.184;11.268;2023-06-22T02:42:49;9.75;;;5.32;;
43877;SDS011;29815;48.184;11.268;2023-06-22T02:45:20;10.52;;;6.00;;
43877;SDS011;29815;48.184;11.268;2023-06-22T02:47:50;11.10;;;5.93;;
43877;SDS011;29815;48.184;11.268;2023-06-22T02:50:20;8.55;;;5.95;;
43877;SDS011;29815;48.184;11.268;2023-06-22T02:52:50;7.32;;;5.75;;
43877;SDS011;29815;48.184;11.268;2023-06-22T02:55:21;6.63;;;4.90;;
43877;SDS011;29815;48.184;11.268;2023-06-22T02:57:56;9.40;;;5.88;;
43877;SDS011;29815;48.184;11.268;2023-06-22T03:00:31;9.82;;;5.70;;
43877;SDS011;29815;48.184;11.268;2023-06-22T03:03:01;9.90;;;6.35;;
43877;SDS011;29815;48.184;11.268;2023-06-22T03:05:31;8.43;;;6.13;;
43877;SDS011;29815;48.184;11.268;2023-06-22T03:08:03;12.02;;;5.97;;
43877;SDS011;29815;48.184;11.268;2023-06-22T03:10:34;9.27;;;7.15;;
43877;SDS011;29815;48.184;11.268;2023-06-22T03:13:04;7.10;;;5.53;;
43877;SDS011;29815;48.184;11.268;2023-06-22T03:15:36;9.75;;;6.47;;
43877;SDS011;29815;48.184;11.268;2023-06-22T03:18:06;8.18;;;6.25;;
43877;SDS011;29815;48.184;11.268;2023-06-22T03:20:36;7.55;;;5.80;;
43877;SDS011;29815;48.184;11.268;2023-06-22T03:23:09;11.35;;;5.88;;
43877;SDS011;29815;48.184;11.268;2023-06-22T03:25:38;8.27;;;5.47;;
43877;SDS011;29815;48.184;11.268;2023-06-22T03:28:09;12.27;;;6.55;;
43877;SDS011;29815;48.184;11.268;2023-06-22T03:30:40;8.13;;;6.18;;
43877;SDS011;29815;48.184;11.268;2023-06-22T03:33:09;10.48;;;6.82;;
43877;SDS011;29815;48.184;11.268;2023-06-22T03:35:39;8.88;;;6.43;;
43877;SDS011;29815;48.184;11.268;2023-06-22T03:38:11;11.73;;;7.72;;
43877;SDS011;29815;48.184;11.268;2023-06-22T03:40:41;13.45;;;6.80;;
43877;SDS011;29815;48.184;11.268;2023-06-22T03:43:10;10.82;;;7.40;;
43877;SDS011;29815;48.184;11.268;2023-06-22T03:45:41;12.50;;;6.82;;
43877;SDS011;29815;48.184;11.268;2023-06-22T03:48:13;10.95;;;7.50;;
43877;SDS011;29815;48.184;11.268;2023-06-22T03:50:43;10.00;;;7.10;;
43877;SDS011;29815;48.184;11.268;2023-06-22T03:53:12;16.80;;;8.02;;
43877;SDS011;29815;48.184;11.268;2023-06-22T03:56:01;13.43;;;6.65;;
43877;SDS011;29815;48.184;11.268;2023-06-22T03:58:42;11.68;;;7.47;;
43877;SDS011;29815;48.184;11.268;2023-06-22T04:01:13;10.75;;;6.47;;
43877;SDS011;29815;48.184;11.268;2023-06-22T04:03:44;13.02;;;6.50;;
43877;SDS011;29815;48.184;11.268;2023-06-22T04:06:16;12.27;;;6.88;;
43877;SDS011;29815;48.184;11.268;2023-06-22T04:08:46;11.02;;;7.55;;
43877;SDS011;29815;48.184;11.268;2023-06-22T04:14:17;11.85;;;6.80;;
43877;SDS011;29815;48.184;11.268;2023-06-22T04:16:48;12.43;;;8.40;;
43877;SDS011;29815;48.184;11.268;2023-06-22T04:19:17;10.93;;;7.32;;
43877;SDS011;29815;48.184;11.268;2023-06-22T04:21:47;12.52;;;6.50;;
43877;SDS011;29815;48.184;11.268;2023-06-22T04:24:16;9.43;;;6.50;;
43877;SDS011;29815;48.184;11.268;2023-06-22T04:26:46;9.48;;;6.55;;
43877;SDS011;29815;48.184;11.268;2023-06-22T04:29:16;13.75;;;7.53;;
43877;SDS011;29815;48.184;11.268;2023-06-22T04:31:47;11.10;;;7.20;;
43877;SDS011;29815;48.184;11.268;2023-06-22T04:34:18;13.23;;;7.57;;
43877;SDS011;29815;48.184;11.268;2023-06-22T04:36:47;11.50;;;6.60;;
43877;SDS011;29815;48.184;11.268;2023-06-22T04:39:17;9.48;;;6.78;;
43877;SDS011;29815;48.184;11.268;2023-06-22T04:41:46;11.75;;;6.72;;
43877;SDS011;29815;48.184;11.268;2023-06-22T04:44:16;11.68;;;6.32;;
43877;SDS011;29815;48.184;11.268;2023-06-22T04:46:54;10.65;;;6.38;;
43877;SDS011;29815;48.184;11.268;2023-06-22T04:49:30;14.68;;;8.05;;
43877;SDS011;29815;48.184;11.268;2023-06-22T04:54:33;9.10;;;7.20;;
43877;SDS011;29815;48.184;11.268;2023-06-22T04:57:05;11.23;;;7.65;;
43877;SDS011;29815;48.184;11.268;2023-06-22T04:59:37;9.82;;;6.93;;
43877;SDS011;29815;48.184;11.268;2023-06-22T05:02:10;10.80;;;7.53;;
43877;SDS011;29815;48.184;11.268;2023-06-22T05:04:40;14.10;;;7.13;;
43877;SDS011;29815;48.184;11.268;2023-06-22T05:07:10;10.05;;;6.57;;
43877;SDS011;29815;48.184;11.268;2023-06-22T05:09:39;13.82;;;6.35;;
43877;SDS011;29815;48.184;11.268;2023-06-22T05:12:09;15.80;;;7.20;;
43877;SDS011;29815;48.184;11.268;2023-06-22T05:14:39;8.23;;;7.07;;
43877;SDS011;29815;48.184;11.268;2023-06-22T05:17:11;11.65;;;6.97;;
43877;SDS011;29815;48.184;11.268;2023-06-22T05:19:42;15.63;;;7.28;;
43877;SDS011;29815;48.184;11.268;2023-06-22T05:22:12;12.77;;;7.55;;
43877;SDS011;29815;48.184;11.268;2023-06-22T05:24:42;13.02;;;7.70;;
43877;SDS011;29815;48.184;11.268;2023-06-22T05:27:29;10.98;;;6.70;;
43877;SDS011;29815;48.184;11.268;2023-06-22T05:30:16;10.75;;;7.40;;
43877;SDS011;29815;48.184;11.268;2023-06-22T05:32:50;9.50;;;7.57;;
43877;SDS011;29815;48.184;11.268;2023-06-22T05:35:20;14.38;;;7.38;;
43877;SDS011;29815;48.184;11.268;2023-06-22T05:37:50;11.73;;;7.72;;
43877;SDS011;29815;48.184;11.268;2023-06-22T05:40:19;16.23;;;8.30;;
43877;SDS011;29815;48.184;11.268;2023-06-22T05:42:49;12.82;;;7.00;;
43877;SDS011;29815;48.184;11.268;2023-06-22T05:45:19;9.63;;;7.20;;
43877;SDS011;29815;48.184;11.268;2023-06-22T05:48:00;16.02;;;7.43;;
43877;SDS011;29815;48.184;11.268;2023-06-22T05:50:30;11.68;;;6.68;;
43877;SDS011;29815;48.184;11.268;2023-06-22T05:53:00;17.15;;;8.15;;
43877;SDS011;29815;48.184;11.268;2023-06-22T05:55:29;16.75;;;8.50;;
43877;SDS011;29815;48.184;11.268;2023-06-22T05:58:02;12.63;;;7.90;;
43877;SDS011;29815;48.184;11.268;2023-06-22T06:00:32;10.27;;;6.72;;
43877;SDS011;29815;48.184;11.268;2023-06-22T06:03:05;13.23;;;7.80;;
43877;SDS011;29815;48.184;11.268;2023-06-22T06:05:36;14.30;;;7.50;;
43877;SDS011;29815;48.184;11.268;2023-06-22T06:08:06;12.32;;;7.80;;
43877;SDS011;29815;48.184;11.268;2023-06-22T06:10:38;10.93;;;8.10;;
43877;SDS011;29815;48.184;11.268;2023-06-22T06:13:07;11.90;;;7.78;;
43877;SDS011;29815;48.184;11.268;2023-06-22T06:15:37;12.02;;;8.43;;
43877;SDS011;29815;48.184;11.268;2023-06-22T06:18:08;13.63;;;8.75;;
43877;SDS011;29815;48.184;11.268;2023-06-22T06:20:38;12.35;;;7.55;;
43877;SDS011;29815;48.184;11.268;2023-06-22T06:23:07;14.00;;;8.23;;
43877;SDS011;29815;48.184;11.268;2023-06-22T06:25:37;12.68;;;7.78;;
43877;SDS011;29815;48.184;11.268;2023-06-22T06:28:07;14.38;;;8.40;;
43877;SDS011;29815;48.184;11.268;2023-06-22T06:30:36;13.40;;;8.73;;
43877;SDS011;29815;48.184;11.268;2023-06-22T06:33:06;15.23;;;8.27;;
43877;SDS011;29815;48.184;11.268;2023-06-22T06:35:38;11.90;;;7.57;;
43877;SDS011;29815;48.184;11.268;2023-06-22T06:38:07;13.65;;;7.72;;
43877;SDS011;29815;48.184;11.268;2023-06-22T06:40:47;12.85;;;8.25;;
43877;SDS011;29815;48.184;11.268;2023-06-22T06:43:18;10.98;;;7.07;;
43877;SDS011;29815;48.184;11.268;2023-06-22T06:45:47;16.00;;;8.55;;
43877;SDS011;29815;48.184;11.268;2023-06-22T06:48:19;13.18;;;7.97;;
43877;SDS011;29815;48.184;11.268;2023-06-22T06:50:50;17.20;;;8.52;;
43877;SDS011;29815;48.184;11.268;2023-06-22T06:53:19;14.00;;;8.48;;
43877;SDS011;29815;48.184;11.268;2023-06-22T06:55:49;10.77;;;7.68;;
43877;SDS011;29815;48.184;11.268;2023-06-22T06:58:19;10.57;;;8.07;;
43877;SDS011;29815;48.184;11.268;2023-06-22T07:00:50;10.43;;;7.45;;
43877;SDS011;29815;48.184;11.268;2023-06-22T07:03:20;14.65;;;8.38;;
43877;SDS011;29815;48.184;11.268;2023-06-22T07:05:51;13.95;;;8.48;;
43877;SDS011;29815;48.184;11.268;2023-06-22T07:08:21;15.13;;;7.45;;
43877;SDS011;29815;48.184;11.268;2023-06-22T07:10:50;13.52;;;7.13;;
43877;SDS011;29815;48.184;11.268;2023-06-22T07:13:21;15.45;;;8.25;;
43877;SDS011;29815;48.184;11.268;2023-06-22T07:15:50;16.98;;;9.02;;
43877;SDS011;29815;48.184;11.268;2023-06-22T07:18:20;11.38;;;8.23;;
43877;SDS011;29815;48.184;11.268;2023-06-22T07:20:49;13.18;;;8.05;;
43877;SDS011;29815;48.184;11.268;2023-06-22T07:23:20;15.55;;;8.65;;
43877;SDS011;29815;48.184;11.268;2023-06-22T07:25:50;11.57;;;7.47;;
43877;SDS011;29815;48.184;11.268;2023-06-22T07:28:19;12.98;;;7.47;;
43877;SDS011;29815;48.184;11.268;2023-06-22T07:30:49;13.32;;;8.50;;
43877;SDS011;29815;48.184;11.268;2023-06-22T07:33:19;10.02;;;6.70;;
43877;SDS011;29815;48.184;11.268;2023-06-22T07:35:49;10.98;;;7.55;;
43877;SDS011;29815;48.184;11.268;2023-06-22T07:38:21;16.77;;;8.65;;
43877;SDS011;29815;48.184;11.268;2023-06-22T07:40:51;13.68;;;8.45;;
43877;SDS011;29815;48.184;11.268;2023-06-22T07:43:20;14.40;;;8.40;;
43877;SDS011;29815;48.184;11.268;2023-06-22T07:45:50;17.13;;;9.30;;
43877;SDS011;29815;48.184;11.268;2023-06-22T07:48:21;13.10;;;7.57;;
43877;SDS011;29815;48.184;11.268;2023-06-22T07:50:52;15.77;;;9.15;;
43877;SDS011;29815;48.184;11.268;2023-06-22T07:53:22;14.40;;;8.57;;
43877;SDS011;29815;48.184;11.268;2023-06-22T07:55:54;10.23;;;7.63;;
43877;SDS011;29815;48.184;11.268;2023-06-22T07:58:23;10.77;;;7.80;;
43877;SDS011;29815;48.184;11.268;2023-06-22T08:00:53;13.48;;;8.50;;
43877;SDS011;29815;48.184;11.268;2023-06-22T08:03:22;14.38;;;8.73;;
43877;SDS011;29815;48.184;11.268;2023-06-22T08:05:54;13.10;;;7.32;;
43877;SDS011;29815;48.184;11.268;2023-06-22T08:08:23;12.88;;;7.57;;
43877;SDS011;29815;48.184;11.268;2023-06-22T08:10:53;18.88;;;8.85;;
43877;SDS011;29815;48.184;11.268;2023-06-22T08:13:23;12.32;;;7.07;;
43877;SDS011;29815;48.184;11.268;2023-06-22T08:15:54;15.80;;;8.85;;
43877;SDS011;29815;48.184;11.268;2023-06-22T08:18:24;14.80;;;7.95;;
43877;SDS011;29815;48.184;11.268;2023-06-22T08:20:55;12.50;;;8.35;;
43877;SDS011;29815;48.184;11.268;2023-06-22T08:23:24;13.13;;;8.27;;
43877;SDS011;29815;48.184;11.268;2023-06-22T08:25:54;15.13;;;8.23;;
43877;SDS011;29815;48.184;11.268;2023-06-22T08:28:23;12.70;;;8.95;;
43877;SDS011;29815;48.184;11.268;2023-06-22T08:30:53;12.27;;;8.38;;
43877;SDS011;29815;48.184;11.268;2023-06-22T08:33:23;16.08;;;8.80;;
43877;SDS011;29815;48.184;11.268;2023-06-22T08:35:57;11.75;;;7.47;;
43877;SDS011;29815;48.184;11.268;2023-06-22T08:38:27;10.88;;;7.30;;
43877;SDS011;29815;48.184;11.268;2023-06-22T08:40:57;12.35;;;8.18;;
43877;SDS011;29815;48.184;11.268;2023-06-22T08:43:27;12.18;;;7.45;;
43877;SDS011;29815;48.184;11.268;2023-06-22T08:45:57;12.13;;;7.53;;
43877;SDS011;29815;48.184;11.268;2023-06-22T08:48:26;14.45;;;9.70;;
43877;SDS011;29815;48.184;11.268;2023-06-22T08:50:57;16.38;;;9.02;;
43877;SDS011;29815;48.184;11.268;2023-06-22T08:53:28;12.10;;;7.80;;
43877;SDS011;29815;48.184;11.268;2023-06-22T08:55:57;13.95;;;8.70;;
43877;SDS011;29815;48.184;11.268;2023-06-22T08:58:27;12.85;;;7.57;;
43877;SDS011;29815;48.184;11.268;2023-06-22T09:00:57;13.85;;;7.15;;
43877;SDS011;29815;48.184;11.268;2023-06-22T09:03:28;17.00;;;8.15;;
43877;SDS011;29815;48.184;11.268;2023-06-22T09:08:31;13.40;;;8.32;;
43877;SDS011;29815;48.184;11.268;2023-06-22T09:11:01;13.52;;;8.60;;
43877;SDS011;29815;48.184;11.268;2023-06-22T09:13:31;15.07;;;8.32;;
43877;SDS011;29815;48.184;11.268;2023-06-22T09:16:02;16.07;;;8.70;;
43877;SDS011;29815;48.184;11.268;2023-06-22T09:18:32;12.05;;;7.68;;
43877;SDS011;29815;48.184;11.268;2023-06-22T09:21:05;17.88;;;8.90;;
43877;SDS011;29815;48.184;11.268;2023-06-22T09:23:37;14.63;;;9.02;;
43877;SDS011;29815;48.184;11.268;2023-06-22T09:26:07;13.00;;;8.52;;
43877;SDS011;29815;48.184;11.268;2023-06-22T09:28:38;22.85;;;9.50;;
43877;SDS011;29815;48.184;11.268;2023-06-22T09:31:08;12.77;;;8.23;;
43877;SDS011;29815;48.184;11.268;2023-06-22T09:33:37;13.23;;;8.30;;
43877;SDS011;29815;48.184;11.268;2023-06-22T09:36:10;16.75;;;9.20;;
43877;SDS011;29815;48.184;11.268;2023-06-22T09:38:40;12.30;;;8.45;;
43877;SDS011;29815;48.184;11.268;2023-06-22T09:41:09;15.23;;;7.80;;
43877;SDS011;29815;48.184;11.268;2023-06-22T09:43:39;19.33;;;9.25;;
43877;SDS011;29815;48.184;11.268;2023-06-22T09:46:09;14.30;;;8.10;;
43877;SDS011;29815;48.184;11.268;2023-06-22T09:48:39;13.95;;;7.20;;
43877;SDS011;29815;48.184;11.268;2023-06-22T09:51:08;11.48;;;8.13;;
43877;SDS011;29815;48.184;11.268;2023-06-22T09:53:42;13.38;;;8.10;;
43877;SDS011;29815;48.184;11.268;2023-06-22T09:56:11;13.75;;;7.82;;
43877;SDS011;29815;48.184;11.268;2023-06-22T09:58:43;14.60;;;8.52;;
43877;SDS011;29815;48.184;11.268;2023-06-22T10:01:14;11.32;;;7.15;;
43877;SDS011;29815;48.184;11.268;2023-06-22T10:03:44;13.68;;;8.38;;
43877;SDS011;29815;48.184;11.268;2023-06-22T10:06:15;16.65;;;7.88;;
43877;SDS011;29815;48.184;11.268;2023-06-22T10:08:45;15.30;;;8.93;;
43877;SDS011;29815;48.184;11.268;2023-06-22T10:11:15;12.20;;;7.10;;
43877;SDS011;29815;48.184;11.268;2023-06-22T10:13:45;13.40;;;7.65;;
43877;SDS011;29815;48.184;11.268;2023-06-22T10:16:14;13.40;;;7.82;;
43877;SDS011;29815;48.184;11.268;2023-06-22T10:18:44;16.10;;;8.05;;
43877;SDS011;29815;48.184;11.268;2023-06-22T10:21:13;18.35;;;8.88;;
43877;SDS011;29815;48.184;11.268;2023-06-22T10:23:44;18.60;;;8.50;;
43877;SDS011;29815;48.184;11.268;2023-06-22T10:26:14;18.73;;;9.25;;
43877;SDS011;29815;48.184;11.268;2023-06-22T10:28:43;14.55;;;8.20;;
43877;SDS011;29815;48.184;11.268;2023-06-22T10:31:13;13.98;;;7.65;;
43877;SDS011;29815;48.184;11.268;2023-06-22T10:33:44;13.47;;;7.37;;
43877;SDS011;29815;48.184;11.268;2023-06-22T10:36:13;13.20;;;8.10;;
43877;SDS011;29815;48.184;11.268;2023-06-22T10:38:44;16.55;;;8.35;;
43877;SDS011;29815;48.184;11.268;2023-06-22T10:41:15;15.43;;;8.52;;
43877;SDS011;29815;48.184;11.268;2023-06-22T10:43:44;17.30;;;8.68;;
43877;SDS011;29815;48.184;11.268;2023-06-22T10:46:14;12.40;;;7.40;;
43877;SDS011;29815;48.184;11.268;2023-06-22T10:49:02;15.55;;;8.02;;
43877;SDS011;29815;48.184;11.268;2023-06-22T10:51:53;11.10;;;7.20;;
43877;SDS011;29815;48.184;11.268;2023-06-22T10:54:22;12.55;;;7.68;;
43877;SDS011;29815;48.184;11.268;2023-06-22T10:56:52;16.50;;;7.53;;
43877;SDS011;29815;48.184;11.268;2023-06-22T10:59:21;16.15;;;7.90;;
43877;SDS011;29815;48.184;11.268;2023-06-22T11:01:51;16.02;;;7.78;;
43877;SDS011;29815;48.184;11.268;2023-06-22T11:04:21;16.27;;;8.05;;
43877;SDS011;29815;48.184;11.268;2023-06-22T11:06:52;15.25;;;8.38;;
43877;SDS011;29815;48.184;11.268;2023-06-22T11:09:24;23.92;;;8.55;;
43877;SDS011;29815;48.184;11.268;2023-06-22T11:11:56;16.15;;;7.80;;
43877;SDS011;29815;48.184;11.268;2023-06-22T11:14:27;16.10;;;7.53;;
43877;SDS011;29815;48.184;11.268;2023-06-22T11:16:56;15.20;;;7.30;;
43877;SDS011;29815;48.184;11.268;2023-06-22T11:19:26;12.80;;;7.65;;
43877;SDS011;29815;48.184;11.268;2023-06-22T11:21:57;14.52;;;7.50;;
43877;SDS011;29815;48.184;11.268;2023-06-22T11:24:26;13.07;;;6.97;;
43877;SDS011;29815;48.184;11.268;2023-06-22T11:26:56;16.70;;;7.30;;
43877;SDS011;29815;48.184;11.268;2023-06-22T11:29:26;14.13;;;7.63;;
43877;SDS011;29815;48.184;11.268;2023-06-22T11:32:16;14.70;;;7.65;;
43877;SDS011;29815;48.184;11.268;2023-06-22T11:34:46;13.35;;;7.38;;
43877;SDS011;29815;48.184;11.268;2023-06-22T11:37:17;15.25;;;7.47;;
43877;SDS011;29815;48.184;11.268;2023-06-22T11:39:46;12.63;;;7.50;;
43877;SDS011;29815;48.184;11.268;2023-06-22T11:42:32;16.85;;;6.80;;
43877;SDS011;29815;48.184;11.268;2023-06-22T11:45:02;17.83;;;7.03;;
43877;SDS011;29815;48.184;11.268;2023-06-22T11:47:34;14.02;;;7.68;;
43877;SDS011;29815;48.184;11.268;2023-06-22T11:50:23;16.98;;;7.70;;
43877;SDS011;29815;48.184;11.268;2023-06-22T11:52:54;11.80;;;7.43;;
43877;SDS011;29815;48.184;11.268;2023-06-22T11:55:23;14.40;;;6.97;;
43877;SDS011;29815;48.184;11.268;2023-06-22T11:57:53;17.25;;;7.47;;
43877;SDS011;29815;48.184;11.268;2023-06-22T12:00:27;18.20;;;7.43;;
43877;SDS011;29815;48.184;11.268;2023-06-22T12:02:57;12.75;;;7.18;;
43877;SDS011;29815;48.184;11.268;2023-06-22T12:05:28;16.37;;;7.70;;
43877;SDS011;29815;48.184;11.268;2023-06-22T12:07:59;14.98;;;7.55;;
43877;SDS011;29815;48.184;11.268;2023-06-22T12:10:36;13.38;;;7.88;;
43877;SDS011;29815;48.184;11.268;2023-06-22T12:13:06;14.57;;;7.63;;
43877;SDS011;29815;48.184;11.268;2023-06-22T12:15:35;15.10;;;6.95;;
43877;SDS011;29815;48.184;11.268;2023-06-22T12:18:05;15.95;;;7.43;;
43877;SDS011;29815;48.184;11.268;2023-06-22T12:20:36;15.83;;;8.23;;
43877;SDS011;29815;48.184;11.268;2023-06-22T12:23:07;13.55;;;6.88;;
43877;SDS011;29815;48.184;11.268;2023-06-22T12:25:36;16.00;;;7.97;;
43877;SDS011;29815;48.184;11.268;2023-06-22T12:28:06;17.35;;;7.28;;
43877;SDS011;29815;48.184;11.268;2023-06-22T12:30:35;11.98;;;7.22;;
43877;SDS011;29815;48.184;11.268;2023-06-22T12:33:05;13.98;;;6.70;;
43877;SDS011;29815;48.184;11.268;2023-06-22T12:35:34;15.85;;;7.60;;
43877;SDS011;29815;48.184;11.268;2023-06-22T12:38:04;11.38;;;6.85;;
43877;SDS011;29815;48.184;11.268;2023-06-22T12:40:37;13.20;;;6.40;;
43877;SDS011;29815;48.184;11.268;2023-06-22T12:43:06;14.68;;;6.63;;
43877;SDS011;29815;48.184;11.268;2023-06-22T12:45:36;12.65;;;7.40;;
43877;SDS011;29815;48.184;11.268;2023-06-22T12:48:06;11.82;;;7.50;;
43877;SDS011;29815;48.184;11.268;2023-06-22T12:50:36;14.38;;;5.90;;
43877;SDS011;29815;48.184;11.268;2023-06-22T12:53:06;24.00;;;8.23;;
43877;SDS011;29815;48.184;11.268;2023-06-22T12:55:37;11.43;;;7.40;;
43877;SDS011;29815;48.184;11.268;2023-06-22T12:58:06;15.00;;;7.07;;
43877;SDS011;29815;48.184;11.268;2023-06-22T13:00:36;14.15;;;6.38;;
43877;SDS011;29815;48.184;11.268;2023-06-22T13:03:07;13.63;;;7.95;;
43877;SDS011;29815;48.184;11.268;2023-06-22T13:05:37;10.75;;;6.55;;
43877;SDS011;29815;48.184;11.268;2023-06-22T13:08:06;13.25;;;7.70;;
43877;SDS011;29815;48.184;11.268;2023-06-22T13:10:41;15.00;;;7.25;;
43877;SDS011;29815;48.184;11.268;2023-06-22T13:13:10;16.47;;;7.27;;
43877;SDS011;29815;48.184;11.268;2023-06-22T13:15:40;11.63;;;6.60;;
43877;SDS011;29815;48.184;11.268;2023-06-22T13:18:09;11.23;;;6.68;;
43877;SDS011;29815;48.184;11.268;2023-06-22T13:20:39;13.98;;;7.43;;
43877;SDS011;29815;48.184;11.268;2023-06-22T13:23:09;12.07;;;7.25;;
43877;SDS011;29815;48.184;11.268;2023-06-22T13:25:38;14.95;;;6.63;;
43877;SDS011;29815;48.184;11.268;2023-06-22T13:28:09;16.25;;;7.45;;
43877;SDS011;29815;48.184;11.268;2023-06-22T13:30:54;12.65;;;6.35;;
43877;SDS011;29815;48.184;11.268;2023-06-22T13:33:24;15.00;;;6.78;;
43877;SDS011;29815;48.184;11.268;2023-06-22T13:36:11;14.52;;;6.80;;
43877;SDS011;29815;48.184;11.268;2023-06-22T13:38:58;12.25;;;6.22;;
43877;SDS011;29815;48.184;11.268;2023-06-22T13:41:29;13.43;;;7.15;;
43877;SDS011;29815;48.184;11.268;2023-06-22T13:44:17;12.95;;;5.95;;
43877;SDS011;29815;48.184;11.268;2023-06-22T13:49:18;10.52;;;6.50;;
43877;SDS011;29815;48.184;11.268;2023-06-22T13:52:06;12.93;;;6.22;;
43877;SDS011;29815;48.184;11.268;2023-06-22T13:54:40;10.38;;;6.47;;
43877;SDS011;29815;48.184;11.268;2023-06-22T13:57:11;12.40;;;6.57;;
43877;SDS011;29815;48.184;11.268;2023-06-22T13:59:40;14.40;;;7.47;;
43877;SDS011;29815;48.184;11.268;2023-06-22T14:02:10;12.48;;;7.57;;
43877;SDS011;29815;48.184;11.268;2023-06-22T14:04:40;14.88;;;6.60;;
43877;SDS011;29815;48.184;11.268;2023-06-22T14:07:09;12.82;;;6.57;;
43877;SDS011;29815;48.184;11.268;2023-06-22T14:09:42;11.07;;;7.13;;
43877;SDS011;29815;48.184;11.268;2023-06-22T14:12:13;13.23;;;6.60;;
43877;SDS011;29815;48.184;11.268;2023-06-22T14:14:43;11.05;;;6.85;;
43877;SDS011;29815;48.184;11.268;2023-06-22T14:17:13;12.88;;;7.22;;
43877;SDS011;29815;48.184;11.268;2023-06-22T14:19:44;13.57;;;7.30;;
43877;SDS011;29815;48.184;11.268;2023-06-22T14:22:13;14.52;;;7.03;;
43877;SDS011;29815;48.184;11.268;2023-06-22T14:24:43;16.15;;;7.07;;
43877;SDS011;29815;48.184;11.268;2023-06-22T14:27:14;16.13;;;6.90;;
43877;SDS011;29815;48.184;11.268;2023-06-22T14:29:44;13.63;;;7.95;;
43877;SDS011;29815;48.184;11.268;2023-06-22T14:32:14;15.52;;;7.63;;
43877;SDS011;29815;48.184;11.268;2023-06-22T14:34:43;14.25;;;7.05;;
43877;SDS011;29815;48.184;11.268;2023-06-22T14:37:13;13.07;;;7.07;;
43877;SDS011;29815;48.184;11.268;2023-06-22T14:39:48;13.68;;;6.78;;
43877;SDS011;29815;48.184;11.268;2023-06-22T14:42:19;16.38;;;6.60;;
43877;SDS011;29815;48.184;11.268;2023-06-22T14:44:51;15.48;;;6.97;;
43877;SDS011;29815;48.184;11.268;2023-06-22T14:47:20;32.28;;;7.55;;
43877;SDS011;29815;48.184;11.268;2023-06-22T14:49:50;16.50;;;6.90;;
43877;SDS011;29815;48.184;11.268;2023-06-22T14:52:19;11.73;;;6.47;;
43877;SDS011;29815;48.184;11.268;2023-06-22T14:54:49;20.52;;;7.53;;
43877;SDS011;29815;48.184;11.268;2023-06-22T14:57:21;15.67;;;6.50;;
43877;SDS011;29815;48.184;11.268;2023-06-22T14:59:55;14.55;;;6.47;;
43877;SDS011;29815;48.184;11.268;2023-06-22T15:02:25;13.93;;;6.70;;